sensor_id;sensor_type;location;lat;lon;timestamp;P1;durP1;ratioP1;P2;durP2;ratioP2
8831;SDS011;4452;50.756;4.472;2022-11-11T00:00:58;22.58;;;12.32;;
8831;SDS011;4452;50.756;4.472;2022-11-11T00:03:31;24.42;;;11.95;;
8831;SDS011;4452;50.756;4.472;2022-11-11T00:06:04;17.70;;;9.20;;
8831;SDS011;4452;50.756;4.472;2022-11-11T00:08:32;26.02;;;12.10;;
8831;SDS011;4452;50.756;4.472;2022-11-11T00:11:05;26.13;;;11.23;;
8831;SDS011;4452;50.756;4.472;2022-11-11T00:13:33;24.45;;;11.40;;
8831;SDS011;4452;50.756;4.472;2022-11-11T00:16:06;25.92;;;12.88;;
8831;SDS011;4452;50.756;4.472;2022-11-11T00:18:34;29.58;;;10.50;;
8831;SDS011;4452;50.756;4.472;2022-11-11T00:21:19;19.25;;;7.95;;
8831;SDS011;4452;50.756;4.472;2022-11-11T00:24:03;27.60;;;12.07;;
8831;SDS011;4452;50.756;4.472;2022-11-11T00:26:48;16.85;;;9.00;;
8831;SDS011;4452;50.756;4.472;2022-11-11T00:29:14;22.50;;;9.07;;
8831;SDS011;4452;50.756;4.472;2022-11-11T00:31:39;14.93;;;7.82;;
8831;SDS011;4452;50.756;4.472;2022-11-11T00:34:25;19.08;;;8.43;;
8831;SDS011;4452;50.756;4.472;2022-11-11T00:36:51;26.38;;;12.60;;
8831;SDS011;4452;50.756;4.472;2022-11-11T00:39:16;17.08;;;6.72;;
8831;SDS011;4452;50.756;4.472;2022-11-11T00:41:42;31.45;;;12.75;;
8831;SDS011;4452;50.756;4.472;2022-11-11T00:44:07;24.98;;;12.38;;
8831;SDS011;4452;50.756;4.472;2022-11-11T00:46:33;18.20;;;8.73;;
8831;SDS011;4452;50.756;4.472;2022-11-11T00:49:17;25.40;;;12.75;;
8831;SDS011;4452;50.756;4.472;2022-11-11T00:52:01;29.52;;;13.07;;
8831;SDS011;4452;50.756;4.472;2022-11-11T00:54:27;11.77;;;7.97;;
8831;SDS011;4452;50.756;4.472;2022-11-11T00:56:52;23.50;;;11.18;;
8831;SDS011;4452;50.756;4.472;2022-11-11T00:59:18;24.75;;;10.52;;
8831;SDS011;4452;50.756;4.472;2022-11-11T01:01:43;17.23;;;9.52;;
8831;SDS011;4452;50.756;4.472;2022-11-11T01:04:09;28.60;;;10.52;;
8831;SDS011;4452;50.756;4.472;2022-11-11T01:06:35;25.60;;;11.63;;
8831;SDS011;4452;50.756;4.472;2022-11-11T01:09:05;22.02;;;11.18;;
8831;SDS011;4452;50.756;4.472;2022-11-11T01:11:31;25.25;;;11.85;;
8831;SDS011;4452;50.756;4.472;2022-11-11T01:13:57;25.27;;;12.70;;
8831;SDS011;4452;50.756;4.472;2022-11-11T01:16:24;23.88;;;12.27;;
8831;SDS011;4452;50.756;4.472;2022-11-11T01:18:51;17.52;;;9.48;;
8831;SDS011;4452;50.756;4.472;2022-11-11T01:21:18;30.67;;;13.32;;
8831;SDS011;4452;50.756;4.472;2022-11-11T01:23:46;27.10;;;13.18;;
8831;SDS011;4452;50.756;4.472;2022-11-11T01:26:18;11.98;;;8.57;;
8831;SDS011;4452;50.756;4.472;2022-11-11T01:28:48;32.15;;;12.57;;
8831;SDS011;4452;50.756;4.472;2022-11-11T01:31:17;17.17;;;10.25;;
8831;SDS011;4452;50.756;4.472;2022-11-11T01:33:43;29.08;;;12.27;;
8831;SDS011;4452;50.756;4.472;2022-11-11T01:36:10;23.50;;;12.40;;
8831;SDS011;4452;50.756;4.472;2022-11-11T01:38:38;23.85;;;10.73;;
8831;SDS011;4452;50.756;4.472;2022-11-11T01:41:05;17.60;;;9.07;;
8831;SDS011;4452;50.756;4.472;2022-11-11T01:54:41;19.55;;;9.73;;
8831;SDS011;4452;50.756;4.472;2022-11-11T01:57:19;28.80;;;12.60;;
8831;SDS011;4452;50.756;4.472;2022-11-11T01:59:51;23.92;;;12.30;;
8831;SDS011;4452;50.756;4.472;2022-11-11T02:05:09;21.83;;;11.75;;
8831;SDS011;4452;50.756;4.472;2022-11-11T02:07:56;17.95;;;10.55;;
8831;SDS011;4452;50.756;4.472;2022-11-11T02:10:25;16.17;;;8.52;;
8831;SDS011;4452;50.756;4.472;2022-11-11T02:12:54;19.70;;;9.65;;
8831;SDS011;4452;50.756;4.472;2022-11-11T02:15:38;20.38;;;9.43;;
8831;SDS011;4452;50.756;4.472;2022-11-11T02:18:04;24.80;;;12.63;;
8831;SDS011;4452;50.756;4.472;2022-11-11T02:20:31;14.40;;;8.60;;
8831;SDS011;4452;50.756;4.472;2022-11-11T02:23:09;29.95;;;13.35;;
8831;SDS011;4452;50.756;4.472;2022-11-11T02:25:47;20.10;;;8.27;;
8831;SDS011;4452;50.756;4.472;2022-11-11T02:28:13;16.40;;;9.23;;
8831;SDS011;4452;50.756;4.472;2022-11-11T02:30:41;22.08;;;10.15;;
8831;SDS011;4452;50.756;4.472;2022-11-11T02:33:07;28.70;;;13.15;;
8831;SDS011;4452;50.756;4.472;2022-11-11T02:35:33;15.95;;;8.93;;
8831;SDS011;4452;50.756;4.472;2022-11-11T02:38:02;17.65;;;8.65;;
8831;SDS011;4452;50.756;4.472;2022-11-11T02:40:34;18.23;;;10.52;;
8831;SDS011;4452;50.756;4.472;2022-11-11T02:43:03;24.70;;;10.70;;
8831;SDS011;4452;50.756;4.472;2022-11-11T02:45:29;24.08;;;11.90;;
8831;SDS011;4452;50.756;4.472;2022-11-11T02:47:55;18.02;;;9.73;;
8831;SDS011;4452;50.756;4.472;2022-11-11T02:50:21;24.70;;;11.13;;
8831;SDS011;4452;50.756;4.472;2022-11-11T02:52:46;27.38;;;12.27;;
8831;SDS011;4452;50.756;4.472;2022-11-11T02:55:12;23.75;;;12.90;;
8831;SDS011;4452;50.756;4.472;2022-11-11T02:57:37;23.20;;;12.68;;
8831;SDS011;4452;50.756;4.472;2022-11-11T03:00:04;20.10;;;9.77;;
8831;SDS011;4452;50.756;4.472;2022-11-11T03:02:30;13.45;;;10.13;;
8831;SDS011;4452;50.756;4.472;2022-11-11T03:04:56;25.08;;;11.48;;
8831;SDS011;4452;50.756;4.472;2022-11-11T03:07:22;14.07;;;8.82;;
8831;SDS011;4452;50.756;4.472;2022-11-11T03:09:49;17.35;;;10.52;;
8831;SDS011;4452;50.756;4.472;2022-11-11T03:12:15;13.57;;;6.60;;
8831;SDS011;4452;50.756;4.472;2022-11-11T03:14:41;21.63;;;10.90;;
8831;SDS011;4452;50.756;4.472;2022-11-11T03:17:07;10.43;;;6.93;;
8831;SDS011;4452;50.756;4.472;2022-11-11T03:19:51;21.85;;;11.35;;
8831;SDS011;4452;50.756;4.472;2022-11-11T03:22:17;19.48;;;11.13;;
8831;SDS011;4452;50.756;4.472;2022-11-11T03:24:42;19.15;;;9.55;;
8831;SDS011;4452;50.756;4.472;2022-11-11T03:27:26;20.90;;;10.38;;
8831;SDS011;4452;50.756;4.472;2022-11-11T03:29:52;14.98;;;8.63;;
8831;SDS011;4452;50.756;4.472;2022-11-11T03:32:17;19.20;;;10.38;;
8831;SDS011;4452;50.756;4.472;2022-11-11T03:34:43;21.00;;;11.35;;
8831;SDS011;4452;50.756;4.472;2022-11-11T03:37:09;22.58;;;12.48;;
8831;SDS011;4452;50.756;4.472;2022-11-11T03:39:54;13.48;;;7.53;;
8831;SDS011;4452;50.756;4.472;2022-11-11T03:42:20;17.38;;;10.60;;
8831;SDS011;4452;50.756;4.472;2022-11-11T03:44:45;25.15;;;12.85;;
8831;SDS011;4452;50.756;4.472;2022-11-11T03:47:11;26.15;;;10.70;;
8831;SDS011;4452;50.756;4.472;2022-11-11T03:49:37;20.33;;;10.15;;
8831;SDS011;4452;50.756;4.472;2022-11-11T03:52:03;25.00;;;12.70;;
8831;SDS011;4452;50.756;4.472;2022-11-11T03:54:28;28.00;;;13.20;;
8831;SDS011;4452;50.756;4.472;2022-11-11T03:56:54;13.52;;;8.93;;
8831;SDS011;4452;50.756;4.472;2022-11-11T03:59:42;24.77;;;12.68;;
8831;SDS011;4452;50.756;4.472;2022-11-11T04:02:11;21.88;;;11.80;;
8831;SDS011;4452;50.756;4.472;2022-11-11T04:04:56;27.67;;;13.05;;
8831;SDS011;4452;50.756;4.472;2022-11-11T04:07:41;27.45;;;13.10;;
8831;SDS011;4452;50.756;4.472;2022-11-11T04:10:25;32.97;;;13.68;;
8831;SDS011;4452;50.756;4.472;2022-11-11T04:12:52;25.45;;;11.02;;
8831;SDS011;4452;50.756;4.472;2022-11-11T04:15:37;32.72;;;13.73;;
8831;SDS011;4452;50.756;4.472;2022-11-11T04:18:21;25.42;;;12.70;;
8831;SDS011;4452;50.756;4.472;2022-11-11T04:21:07;23.55;;;13.48;;
8831;SDS011;4452;50.756;4.472;2022-11-11T04:23:52;26.40;;;13.80;;
8831;SDS011;4452;50.756;4.472;2022-11-11T04:26:17;36.20;;;13.18;;
8831;SDS011;4452;50.756;4.472;2022-11-11T04:28:43;38.53;;;14.50;;
8831;SDS011;4452;50.756;4.472;2022-11-11T04:31:27;24.85;;;14.10;;
8831;SDS011;4452;50.756;4.472;2022-11-11T04:33:52;33.88;;;14.80;;
8831;SDS011;4452;50.756;4.472;2022-11-11T04:36:18;43.20;;;15.73;;
8831;SDS011;4452;50.756;4.472;2022-11-11T04:38:43;28.42;;;13.68;;
8831;SDS011;4452;50.756;4.472;2022-11-11T04:41:28;34.20;;;14.60;;
8831;SDS011;4452;50.756;4.472;2022-11-11T04:43:53;36.35;;;15.20;;
8831;SDS011;4452;50.756;4.472;2022-11-11T04:46:37;37.75;;;15.27;;
8831;SDS011;4452;50.756;4.472;2022-11-11T04:49:03;45.50;;;16.23;;
8831;SDS011;4452;50.756;4.472;2022-11-11T04:51:28;35.33;;;16.73;;
8831;SDS011;4452;50.756;4.472;2022-11-11T04:54:14;37.75;;;16.17;;
8831;SDS011;4452;50.756;4.472;2022-11-11T04:56:39;40.25;;;16.17;;
8831;SDS011;4452;50.756;4.472;2022-11-11T04:59:15;43.45;;;15.98;;
8831;SDS011;4452;50.756;4.472;2022-11-11T05:01:41;44.88;;;18.35;;
8831;SDS011;4452;50.756;4.472;2022-11-11T05:04:25;41.50;;;16.40;;
8831;SDS011;4452;50.756;4.472;2022-11-11T05:06:51;43.08;;;16.63;;
8831;SDS011;4452;50.756;4.472;2022-11-11T05:09:35;41.47;;;18.40;;
8831;SDS011;4452;50.756;4.472;2022-11-11T05:12:01;49.67;;;18.63;;
8831;SDS011;4452;50.756;4.472;2022-11-11T05:14:27;43.20;;;18.73;;
8831;SDS011;4452;50.756;4.472;2022-11-11T05:17:11;45.75;;;17.42;;
8831;SDS011;4452;50.756;4.472;2022-11-11T05:19:55;40.90;;;15.98;;
8831;SDS011;4452;50.756;4.472;2022-11-11T05:22:40;43.30;;;17.30;;
8831;SDS011;4452;50.756;4.472;2022-11-11T05:25:07;50.58;;;17.63;;
8831;SDS011;4452;50.756;4.472;2022-11-11T05:27:50;46.03;;;17.60;;
8831;SDS011;4452;50.756;4.472;2022-11-11T05:30:20;31.48;;;12.20;;
8831;SDS011;4452;50.756;4.472;2022-11-11T05:32:46;41.85;;;14.48;;
8831;SDS011;4452;50.756;4.472;2022-11-11T05:35:13;36.15;;;14.40;;
8831;SDS011;4452;50.756;4.472;2022-11-11T05:37:39;26.40;;;11.20;;
8831;SDS011;4452;50.756;4.472;2022-11-11T05:40:06;38.97;;;14.57;;
8831;SDS011;4452;50.756;4.472;2022-11-11T05:42:32;41.15;;;15.60;;
8831;SDS011;4452;50.756;4.472;2022-11-11T05:44:58;46.95;;;17.13;;
8831;SDS011;4452;50.756;4.472;2022-11-11T05:47:23;46.00;;;15.80;;
8831;SDS011;4452;50.756;4.472;2022-11-11T05:49:49;27.38;;;11.82;;
8831;SDS011;4452;50.756;4.472;2022-11-11T05:52:15;34.22;;;13.82;;
8831;SDS011;4452;50.756;4.472;2022-11-11T05:54:41;29.77;;;11.88;;
8831;SDS011;4452;50.756;4.472;2022-11-11T05:57:07;42.53;;;14.77;;
8831;SDS011;4452;50.756;4.472;2022-11-11T05:59:33;43.53;;;16.45;;
8831;SDS011;4452;50.756;4.472;2022-11-11T06:01:59;38.28;;;14.60;;
8831;SDS011;4452;50.756;4.472;2022-11-11T06:04:25;36.88;;;12.73;;
8831;SDS011;4452;50.756;4.472;2022-11-11T06:06:51;36.28;;;13.40;;
8831;SDS011;4452;50.756;4.472;2022-11-11T06:09:17;37.53;;;15.43;;
8831;SDS011;4452;50.756;4.472;2022-11-11T06:11:43;43.50;;;15.18;;
8831;SDS011;4452;50.756;4.472;2022-11-11T06:14:08;50.50;;;16.92;;
8831;SDS011;4452;50.756;4.472;2022-11-11T06:16:34;32.03;;;11.18;;
8831;SDS011;4452;50.756;4.472;2022-11-11T06:19:00;23.45;;;10.55;;
8831;SDS011;4452;50.756;4.472;2022-11-11T06:21:28;44.70;;;15.20;;
8831;SDS011;4452;50.756;4.472;2022-11-11T06:23:54;40.72;;;14.00;;
8831;SDS011;4452;50.756;4.472;2022-11-11T06:26:19;35.60;;;12.57;;
8831;SDS011;4452;50.756;4.472;2022-11-11T06:28:46;42.80;;;13.65;;
8831;SDS011;4452;50.756;4.472;2022-11-11T06:31:19;45.17;;;15.43;;
8831;SDS011;4452;50.756;4.472;2022-11-11T06:33:47;46.03;;;15.70;;
8831;SDS011;4452;50.756;4.472;2022-11-11T06:36:13;45.53;;;15.45;;
8831;SDS011;4452;50.756;4.472;2022-11-11T06:38:40;46.03;;;14.85;;
8831;SDS011;4452;50.756;4.472;2022-11-11T06:41:06;54.83;;;14.93;;
8831;SDS011;4452;50.756;4.472;2022-11-11T06:43:33;49.55;;;15.52;;
8831;SDS011;4452;50.756;4.472;2022-11-11T06:45:58;40.58;;;14.27;;
8831;SDS011;4452;50.756;4.472;2022-11-11T06:48:26;50.20;;;15.57;;
8831;SDS011;4452;50.756;4.472;2022-11-11T06:50:53;59.15;;;17.15;;
8831;SDS011;4452;50.756;4.472;2022-11-11T06:53:20;55.33;;;14.15;;
8831;SDS011;4452;50.756;4.472;2022-11-11T06:55:46;35.80;;;11.20;;
8831;SDS011;4452;50.756;4.472;2022-11-11T07:00:40;45.70;;;13.35;;
8831;SDS011;4452;50.756;4.472;2022-11-11T07:03:07;45.90;;;15.20;;
8831;SDS011;4452;50.756;4.472;2022-11-11T07:05:34;51.90;;;14.00;;
8831;SDS011;4452;50.756;4.472;2022-11-11T07:08:04;50.30;;;14.25;;
8831;SDS011;4452;50.756;4.472;2022-11-11T07:10:34;46.83;;;15.13;;
8831;SDS011;4452;50.756;4.472;2022-11-11T07:13:02;53.95;;;16.50;;
8831;SDS011;4452;50.756;4.472;2022-11-11T07:15:28;56.30;;;14.70;;
8831;SDS011;4452;50.756;4.472;2022-11-11T07:17:54;52.13;;;14.75;;
8831;SDS011;4452;50.756;4.472;2022-11-11T07:20:20;46.58;;;14.77;;
8831;SDS011;4452;50.756;4.472;2022-11-11T07:22:46;35.05;;;10.02;;
8831;SDS011;4452;50.756;4.472;2022-11-11T07:25:12;47.20;;;14.48;;
8831;SDS011;4452;50.756;4.472;2022-11-11T07:27:38;41.58;;;12.77;;
8831;SDS011;4452;50.756;4.472;2022-11-11T07:30:05;48.78;;;14.50;;
8831;SDS011;4452;50.756;4.472;2022-11-11T07:32:31;46.83;;;13.30;;
8831;SDS011;4452;50.756;4.472;2022-11-11T07:34:57;46.60;;;14.23;;
8831;SDS011;4452;50.756;4.472;2022-11-11T07:37:23;42.22;;;13.75;;
8831;SDS011;4452;50.756;4.472;2022-11-11T07:39:49;50.53;;;12.70;;
8831;SDS011;4452;50.756;4.472;2022-11-11T07:42:14;27.20;;;10.60;;
8831;SDS011;4452;50.756;4.472;2022-11-11T07:44:40;30.77;;;13.02;;
8831;SDS011;4452;50.756;4.472;2022-11-11T07:47:06;45.92;;;13.15;;
8831;SDS011;4452;50.756;4.472;2022-11-11T07:49:32;45.50;;;14.88;;
8831;SDS011;4452;50.756;4.472;2022-11-11T07:51:58;35.55;;;11.23;;
8831;SDS011;4452;50.756;4.472;2022-11-11T07:54:24;48.03;;;14.25;;
8831;SDS011;4452;50.756;4.472;2022-11-11T07:56:49;32.90;;;10.45;;
8831;SDS011;4452;50.756;4.472;2022-11-11T07:59:15;26.05;;;9.75;;
8831;SDS011;4452;50.756;4.472;2022-11-11T08:01:41;20.38;;;9.10;;
8831;SDS011;4452;50.756;4.472;2022-11-11T08:04:06;27.88;;;10.25;;
8831;SDS011;4452;50.756;4.472;2022-11-11T08:06:32;19.42;;;9.18;;
8831;SDS011;4452;50.756;4.472;2022-11-11T08:08:58;25.23;;;9.43;;
8831;SDS011;4452;50.756;4.472;2022-11-11T08:11:24;32.50;;;10.82;;
8831;SDS011;4452;50.756;4.472;2022-11-11T08:14:08;35.25;;;13.38;;
8831;SDS011;4452;50.756;4.472;2022-11-11T08:16:33;27.60;;;11.23;;
8831;SDS011;4452;50.756;4.472;2022-11-11T08:18:59;28.35;;;10.10;;
8831;SDS011;4452;50.756;4.472;2022-11-11T08:21:25;20.95;;;8.38;;
8831;SDS011;4452;50.756;4.472;2022-11-11T08:23:51;14.27;;;7.15;;
8831;SDS011;4452;50.756;4.472;2022-11-11T08:26:17;32.10;;;12.02;;
8831;SDS011;4452;50.756;4.472;2022-11-11T08:28:44;33.30;;;11.95;;
8831;SDS011;4452;50.756;4.472;2022-11-11T08:31:09;19.15;;;10.18;;
8831;SDS011;4452;50.756;4.472;2022-11-11T08:33:35;29.35;;;11.50;;
8831;SDS011;4452;50.756;4.472;2022-11-11T08:36:01;16.40;;;7.53;;
8831;SDS011;4452;50.756;4.472;2022-11-11T08:38:29;25.30;;;9.90;;
8831;SDS011;4452;50.756;4.472;2022-11-11T08:40:58;16.75;;;8.73;;
8831;SDS011;4452;50.756;4.472;2022-11-11T08:43:24;22.58;;;8.18;;
8831;SDS011;4452;50.756;4.472;2022-11-11T08:45:53;25.33;;;10.18;;
8831;SDS011;4452;50.756;4.472;2022-11-11T08:48:19;15.48;;;7.78;;
8831;SDS011;4452;50.756;4.472;2022-11-11T08:50:44;19.15;;;9.27;;
8831;SDS011;4452;50.756;4.472;2022-11-11T08:53:10;11.55;;;7.72;;
8831;SDS011;4452;50.756;4.472;2022-11-11T08:55:36;12.63;;;5.97;;
8831;SDS011;4452;50.756;4.472;2022-11-11T08:58:04;12.07;;;6.43;;
8831;SDS011;4452;50.756;4.472;2022-11-11T09:00:31;10.10;;;5.60;;
8831;SDS011;4452;50.756;4.472;2022-11-11T09:03:04;15.43;;;7.82;;
8831;SDS011;4452;50.756;4.472;2022-11-11T09:05:31;12.05;;;6.60;;
8831;SDS011;4452;50.756;4.472;2022-11-11T09:08:00;9.10;;;5.28;;
8831;SDS011;4452;50.756;4.472;2022-11-11T09:10:27;9.55;;;4.50;;
8831;SDS011;4452;50.756;4.472;2022-11-11T09:12:56;7.88;;;5.80;;
8831;SDS011;4452;50.756;4.472;2022-11-11T09:15:25;10.10;;;6.30;;
8831;SDS011;4452;50.756;4.472;2022-11-11T09:17:54;8.02;;;5.57;;
8831;SDS011;4452;50.756;4.472;2022-11-11T09:20:22;6.65;;;5.20;;
8831;SDS011;4452;50.756;4.472;2022-11-11T09:22:51;11.55;;;4.13;;
8831;SDS011;4452;50.756;4.472;2022-11-11T09:25:22;7.05;;;4.65;;
8831;SDS011;4452;50.756;4.472;2022-11-11T09:27:53;6.43;;;4.53;;
8831;SDS011;4452;50.756;4.472;2022-11-11T09:30:20;11.02;;;5.63;;
8831;SDS011;4452;50.756;4.472;2022-11-11T09:32:46;3.80;;;3.10;;
8831;SDS011;4452;50.756;4.472;2022-11-11T09:35:11;6.65;;;4.47;;
8831;SDS011;4452;50.756;4.472;2022-11-11T09:37:37;6.03;;;4.05;;
8831;SDS011;4452;50.756;4.472;2022-11-11T09:40:03;3.28;;;2.97;;
8831;SDS011;4452;50.756;4.472;2022-11-11T09:45:06;2.97;;;2.67;;
8831;SDS011;4452;50.756;4.472;2022-11-11T09:50:42;5.45;;;3.30;;
8831;SDS011;4452;50.756;4.472;2022-11-11T09:53:28;4.38;;;3.13;;
8831;SDS011;4452;50.756;4.472;2022-11-11T09:56:23;4.35;;;3.03;;
8831;SDS011;4452;50.756;4.472;2022-11-11T09:59:08;3.40;;;2.15;;
8831;SDS011;4452;50.756;4.472;2022-11-11T10:01:51;2.20;;;2.08;;
8831;SDS011;4452;50.756;4.472;2022-11-11T10:06:59;1.88;;;1.77;;
8831;SDS011;4452;50.756;4.472;2022-11-11T10:09:40;2.28;;;2.08;;
8831;SDS011;4452;50.756;4.472;2022-11-11T10:12:21;2.50;;;2.30;;
8831;SDS011;4452;50.756;4.472;2022-11-11T10:14:53;2.80;;;2.42;;
8831;SDS011;4452;50.756;4.472;2022-11-11T10:20:21;5.53;;;2.67;;
8831;SDS011;4452;50.756;4.472;2022-11-11T10:22:53;3.13;;;2.35;;
8831;SDS011;4452;50.756;4.472;2022-11-11T10:25:26;3.42;;;2.10;;
8831;SDS011;4452;50.756;4.472;2022-11-11T10:27:53;3.65;;;2.47;;
8831;SDS011;4452;50.756;4.472;2022-11-11T10:30:23;1.80;;;1.70;;
8831;SDS011;4452;50.756;4.472;2022-11-11T10:32:58;3.28;;;2.00;;
8831;SDS011;4452;50.756;4.472;2022-11-11T10:35:33;3.80;;;2.13;;
8831;SDS011;4452;50.756;4.472;2022-11-11T10:38:10;2.63;;;1.92;;
8831;SDS011;4452;50.756;4.472;2022-11-11T10:40:53;1.92;;;1.77;;
8831;SDS011;4452;50.756;4.472;2022-11-11T10:43:22;3.17;;;2.00;;
8831;SDS011;4452;50.756;4.472;2022-11-11T10:45:59;1.65;;;1.55;;
8831;SDS011;4452;50.756;4.472;2022-11-11T10:51:15;3.28;;;1.85;;
8831;SDS011;4452;50.756;4.472;2022-11-11T10:53:47;1.77;;;1.65;;
8831;SDS011;4452;50.756;4.472;2022-11-11T10:56:20;4.28;;;1.60;;
8831;SDS011;4452;50.756;4.472;2022-11-11T10:59:08;5.25;;;2.78;;
8831;SDS011;4452;50.756;4.472;2022-11-11T11:02:20;2.58;;;1.98;;
8831;SDS011;4452;50.756;4.472;2022-11-11T11:05:12;2.40;;;1.73;;
8831;SDS011;4452;50.756;4.472;2022-11-11T11:08:01;2.33;;;1.70;;
8831;SDS011;4452;50.756;4.472;2022-11-11T11:10:37;2.00;;;1.90;;
8831;SDS011;4452;50.756;4.472;2022-11-11T11:13:41;3.03;;;1.83;;
8831;SDS011;4452;50.756;4.472;2022-11-11T11:16:10;2.35;;;1.60;;
8831;SDS011;4452;50.756;4.472;2022-11-11T11:18:40;1.67;;;1.42;;
8831;SDS011;4452;50.756;4.472;2022-11-11T11:21:06;4.82;;;2.00;;
8831;SDS011;4452;50.756;4.472;2022-11-11T11:23:34;5.45;;;1.98;;
8831;SDS011;4452;50.756;4.472;2022-11-11T11:26:08;1.50;;;1.40;;
8831;SDS011;4452;50.756;4.472;2022-11-11T11:28:51;2.15;;;1.95;;
8831;SDS011;4452;50.756;4.472;2022-11-11T11:31:34;3.28;;;1.60;;
8831;SDS011;4452;50.756;4.472;2022-11-11T11:34:01;1.83;;;1.73;;
8831;SDS011;4452;50.756;4.472;2022-11-11T11:36:28;1.50;;;1.40;;
8831;SDS011;4452;50.756;4.472;2022-11-11T11:38:53;2.08;;;1.75;;
8831;SDS011;4452;50.756;4.472;2022-11-11T11:41:35;5.53;;;2.40;;
8831;SDS011;4452;50.756;4.472;2022-11-11T11:46:51;1.85;;;1.67;;
8831;SDS011;4452;50.756;4.472;2022-11-11T11:52:11;4.32;;;2.22;;
8831;SDS011;4452;50.756;4.472;2022-11-11T11:55:00;3.00;;;2.17;;
8831;SDS011;4452;50.756;4.472;2022-11-11T12:00:24;4.50;;;2.20;;
8831;SDS011;4452;50.756;4.472;2022-11-11T12:03:03;3.08;;;2.05;;
8831;SDS011;4452;50.756;4.472;2022-11-11T12:06:00;1.95;;;1.85;;
8831;SDS011;4452;50.756;4.472;2022-11-11T12:16:33;2.45;;;2.22;;
8831;SDS011;4452;50.756;4.472;2022-11-11T12:27:28;2.00;;;1.73;;
8831;SDS011;4452;50.756;4.472;2022-11-11T12:35:47;2.85;;;2.33;;
8831;SDS011;4452;50.756;4.472;2022-11-11T12:41:58;4.55;;;2.08;;
8831;SDS011;4452;50.756;4.472;2022-11-11T12:44:15;1.90;;;1.80;;
8831;SDS011;4452;50.756;4.472;2022-11-11T12:47:06;3.75;;;2.22;;
8831;SDS011;4452;50.756;4.472;2022-11-11T12:49:52;2.33;;;2.00;;
8831;SDS011;4452;50.756;4.472;2022-11-11T12:55:40;4.80;;;2.20;;
8831;SDS011;4452;50.756;4.472;2022-11-11T13:01:37;2.58;;;2.38;;
8831;SDS011;4452;50.756;4.472;2022-11-11T13:04:51;4.68;;;2.40;;
8831;SDS011;4452;50.756;4.472;2022-11-11T13:16:16;1.98;;;1.88;;
8831;SDS011;4452;50.756;4.472;2022-11-11T13:18:59;2.75;;;2.55;;
8831;SDS011;4452;50.756;4.472;2022-11-11T13:24:09;2.75;;;2.03;;
8831;SDS011;4452;50.756;4.472;2022-11-11T13:26:37;5.43;;;2.20;;
8831;SDS011;4452;50.756;4.472;2022-11-11T13:32:01;2.30;;;1.98;;
8831;SDS011;4452;50.756;4.472;2022-11-11T13:34:30;2.47;;;2.28;;
8831;SDS011;4452;50.756;4.472;2022-11-11T13:36:59;1.92;;;1.80;;
8831;SDS011;4452;50.756;4.472;2022-11-11T13:39:28;2.03;;;1.92;;
8831;SDS011;4452;50.756;4.472;2022-11-11T13:41:56;3.40;;;2.17;;
8831;SDS011;4452;50.756;4.472;2022-11-11T13:44:24;5.30;;;2.00;;
8831;SDS011;4452;50.756;4.472;2022-11-11T13:47:14;2.10;;;1.90;;
8831;SDS011;4452;50.756;4.472;2022-11-11T13:49:54;2.95;;;1.70;;
8831;SDS011;4452;50.756;4.472;2022-11-11T13:52:29;2.03;;;1.83;;
8831;SDS011;4452;50.756;4.472;2022-11-11T13:55:04;3.70;;;1.90;;
8831;SDS011;4452;50.756;4.472;2022-11-11T13:57:33;2.35;;;1.92;;
8831;SDS011;4452;50.756;4.472;2022-11-11T14:02:46;2.97;;;1.90;;
8831;SDS011;4452;50.756;4.472;2022-11-11T14:12:43;2.88;;;2.00;;
8831;SDS011;4452;50.756;4.472;2022-11-11T14:20:45;3.88;;;2.00;;
8831;SDS011;4452;50.756;4.472;2022-11-11T14:23:20;3.10;;;2.08;;
8831;SDS011;4452;50.756;4.472;2022-11-11T14:33:44;2.58;;;2.35;;
8831;SDS011;4452;50.756;4.472;2022-11-11T14:41:55;3.72;;;2.90;;
8831;SDS011;4452;50.756;4.472;2022-11-11T15:00:29;5.20;;;3.67;;
8831;SDS011;4452;50.756;4.472;2022-11-11T15:11:10;5.93;;;3.67;;
8831;SDS011;4452;50.756;4.472;2022-11-11T15:30:11;5.40;;;3.75;;
8831;SDS011;4452;50.756;4.472;2022-11-11T15:32:54;6.82;;;3.72;;
8831;SDS011;4452;50.756;4.472;2022-11-11T15:38:14;7.35;;;3.65;;
8831;SDS011;4452;50.756;4.472;2022-11-11T15:43:17;6.03;;;3.85;;
8831;SDS011;4452;50.756;4.472;2022-11-11T15:45:49;8.18;;;3.90;;
8831;SDS011;4452;50.756;4.472;2022-11-11T15:48:28;3.88;;;3.40;;
8831;SDS011;4452;50.756;4.472;2022-11-11T15:51:13;5.80;;;3.63;;
8831;SDS011;4452;50.756;4.472;2022-11-11T15:53:52;6.67;;;4.10;;
8831;SDS011;4452;50.756;4.472;2022-11-11T15:56:27;10.90;;;4.13;;
8831;SDS011;4452;50.756;4.472;2022-11-11T15:58:54;5.68;;;3.70;;
8831;SDS011;4452;50.756;4.472;2022-11-11T16:01:21;6.90;;;3.75;;
8831;SDS011;4452;50.756;4.472;2022-11-11T16:03:50;7.72;;;3.80;;
8831;SDS011;4452;50.756;4.472;2022-11-11T16:06:17;9.45;;;4.10;;
8831;SDS011;4452;50.756;4.472;2022-11-11T16:08:43;6.20;;;3.80;;
8831;SDS011;4452;50.756;4.472;2022-11-11T16:11:14;6.93;;;4.95;;
8831;SDS011;4452;50.756;4.472;2022-11-11T16:13:52;5.97;;;4.63;;
8831;SDS011;4452;50.756;4.472;2022-11-11T16:16:33;10.02;;;4.80;;
8831;SDS011;4452;50.756;4.472;2022-11-11T16:22:06;10.35;;;5.75;;
8831;SDS011;4452;50.756;4.472;2022-11-11T16:24:36;11.40;;;6.60;;
8831;SDS011;4452;50.756;4.472;2022-11-11T16:27:05;14.65;;;7.68;;
8831;SDS011;4452;50.756;4.472;2022-11-11T16:29:33;12.13;;;7.07;;
8831;SDS011;4452;50.756;4.472;2022-11-11T16:34:47;9.23;;;5.68;;
8831;SDS011;4452;50.756;4.472;2022-11-11T16:37:15;21.30;;;12.55;;
8831;SDS011;4452;50.756;4.472;2022-11-11T16:39:42;16.83;;;11.23;;
8831;SDS011;4452;50.756;4.472;2022-11-11T16:44:54;9.63;;;5.68;;
8831;SDS011;4452;50.756;4.472;2022-11-11T16:50:36;14.13;;;8.20;;
8831;SDS011;4452;50.756;4.472;2022-11-11T16:55:22;11.00;;;4.95;;
8831;SDS011;4452;50.756;4.472;2022-11-11T16:57:56;11.75;;;6.07;;
8831;SDS011;4452;50.756;4.472;2022-11-11T17:00:24;12.48;;;6.97;;
8831;SDS011;4452;50.756;4.472;2022-11-11T17:05:57;15.13;;;10.73;;
8831;SDS011;4452;50.756;4.472;2022-11-11T17:11:07;12.70;;;8.40;;
8831;SDS011;4452;50.756;4.472;2022-11-11T17:13:35;9.93;;;7.82;;
8831;SDS011;4452;50.756;4.472;2022-11-11T17:16:02;14.05;;;7.75;;
8831;SDS011;4452;50.756;4.472;2022-11-11T17:18:32;13.68;;;8.20;;
8831;SDS011;4452;50.756;4.472;2022-11-11T17:20:59;9.65;;;6.45;;
8831;SDS011;4452;50.756;4.472;2022-11-11T17:23:25;9.75;;;6.30;;
8831;SDS011;4452;50.756;4.472;2022-11-11T17:25:55;10.93;;;6.88;;
8831;SDS011;4452;50.756;4.472;2022-11-11T17:28:21;10.23;;;6.53;;
8831;SDS011;4452;50.756;4.472;2022-11-11T17:30:47;8.55;;;6.50;;
8831;SDS011;4452;50.756;4.472;2022-11-11T17:33:13;11.35;;;6.85;;
8831;SDS011;4452;50.756;4.472;2022-11-11T17:35:39;9.18;;;6.78;;
8831;SDS011;4452;50.756;4.472;2022-11-11T17:38:13;10.93;;;6.88;;
8831;SDS011;4452;50.756;4.472;2022-11-11T17:40:42;14.82;;;8.80;;
8831;SDS011;4452;50.756;4.472;2022-11-11T17:43:09;8.75;;;6.97;;
8831;SDS011;4452;50.756;4.472;2022-11-11T17:45:35;12.63;;;7.82;;
8831;SDS011;4452;50.756;4.472;2022-11-11T17:48:00;9.60;;;6.45;;
8831;SDS011;4452;50.756;4.472;2022-11-11T17:50:26;11.43;;;7.55;;
8831;SDS011;4452;50.756;4.472;2022-11-11T17:52:55;8.98;;;6.70;;
8831;SDS011;4452;50.756;4.472;2022-11-11T17:55:21;15.85;;;7.45;;
8831;SDS011;4452;50.756;4.472;2022-11-11T17:57:47;14.38;;;7.45;;
8831;SDS011;4452;50.756;4.472;2022-11-11T18:00:14;14.85;;;7.50;;
8831;SDS011;4452;50.756;4.472;2022-11-11T18:02:40;11.68;;;8.10;;
8831;SDS011;4452;50.756;4.472;2022-11-11T18:05:06;11.77;;;7.22;;
8831;SDS011;4452;50.756;4.472;2022-11-11T18:07:32;9.10;;;6.57;;
8831;SDS011;4452;50.756;4.472;2022-11-11T18:09:58;11.50;;;7.70;;
8831;SDS011;4452;50.756;4.472;2022-11-11T18:12:25;12.05;;;8.05;;
8831;SDS011;4452;50.756;4.472;2022-11-11T18:14:51;12.02;;;7.50;;
8831;SDS011;4452;50.756;4.472;2022-11-11T18:17:17;12.13;;;7.40;;
8831;SDS011;4452;50.756;4.472;2022-11-11T18:19:42;12.07;;;8.05;;
8831;SDS011;4452;50.756;4.472;2022-11-11T18:22:08;8.55;;;7.32;;